Time;durP1;ratioP1;P1;durP2;ratioP2;P2;SDS_P1;SDS_P2;PMS_P1;PMS_P2;Temp;Humidity;BMP_temperature;BMP_pressure;BME280_temperature;BME280_humidity;BME280_pressure;Samples;Min_cycle;Max_cycle;Signal;HPM_P1;HPM_P2
2023/04/18 00:00:09;;;;;;;4.20;3.90;;;;;;;9.47;100.00;96753.03;5045348;28;20210;-57
2023/04/18 00:02:37;;;;;;;3.80;3.60;;;;;;;9.47;100.00;96758.31;5044735;28;20231;-57
2023/04/18 00:05:04;;;;;;;4.47;4.17;;;;;;;9.45;100.00;96752.34;5043896;28;20199;-58
2023/04/18 00:07:30;;;;;;;3.90;3.70;;;;;;;9.46;100.00;96754.84;5044679;28;20637;-58
2023/04/18 00:09:57;;;;;;;4.20;3.90;;;;;;;9.42;100.00;96760.53;5046104;28;20226;-57
2023/04/18 00:12:24;;;;;;;3.93;3.63;;;;;;;9.43;100.00;96751.63;5044332;28;20211;-57
2023/04/18 00:14:51;;;;;;;3.70;3.50;;;;;;;9.45;100.00;96750.53;5043865;28;20206;-57
2023/04/18 00:17:17;;;;;;;4.10;3.70;;;;;;;9.47;100.00;96755.66;5043860;28;20203;-57
2023/04/18 00:19:45;;;;;;;3.43;3.23;;;;;;;9.47;100.00;96750.38;5043611;28;20195;-57
2023/04/18 00:22:13;;;;;;;3.80;3.50;;;;;;;9.47;100.00;96739.84;5044590;28;20290;-57
2023/04/18 00:24:39;;;;;;;3.80;3.50;;;;;;;9.44;100.00;96740.94;5047688;28;20578;-59
2023/04/18 00:27:06;;;;;;;4.00;3.70;;;;;;;9.49;100.00;96735.28;5047278;28;20218;-57
2023/04/18 00:29:35;;;;;;;3.87;3.67;;;;;;;9.48;100.00;96734.44;5043450;28;20235;-57
2023/04/18 00:32:01;;;;;;;4.20;3.90;;;;;;;9.38;100.00;96738.84;5043617;28;20518;-59
2023/04/18 00:34:27;;;;;;;4.10;3.90;;;;;;;9.44;100.00;96722.47;5042794;28;20286;-58
2023/04/18 00:36:55;;;;;;;4.13;3.83;;;;;;;9.41;100.00;96735.09;5043483;28;20891;-59
2023/04/18 00:39:22;;;;;;;4.47;4.17;;;;;;;9.33;100.00;96729.63;5042629;28;20548;-59
2023/04/18 00:41:48;;;;;;;4.70;4.40;;;;;;;9.33;100.00;96729.63;5045279;28;20655;-57
2023/04/18 00:44:15;;;;;;;4.80;4.40;;;;;;;9.25;100.00;96732.09;5046037;28;20210;-57
2023/04/18 00:46:41;;;;;;;4.40;4.10;;;;;;;9.37;100.00;96731.06;5047721;28;20207;-58
2023/04/18 00:49:08;;;;;;;3.93;3.67;;;;;;;9.31;100.00;96735.06;5045565;28;20226;-58
2023/04/18 00:51:35;;;;;;;4.47;4.17;;;;;;;9.23;100.00;96728.78;5044581;28;20207;-58
2023/04/18 00:54:04;;;;;;;4.40;4.10;;;;;;;9.20;100.00;96727.25;5044220;28;20211;-57
2023/04/18 00:56:30;;;;;;;4.17;3.90;;;;;;;9.24;100.00;96714.63;5043945;28;20211;-57
2023/04/18 00:58:58;;;;;;;4.77;4.47;;;;;;;9.22;100.00;96717.38;5043526;28;20198;-59
2023/04/18 01:01:24;;;;;;;4.50;4.20;;;;;;;9.19;100.00;96728.19;5043933;28;20284;-58
2023/04/18 01:03:51;;;;;;;4.23;3.93;;;;;;;9.21;100.00;96715.69;5043216;28;20210;-58
2023/04/18 01:06:17;;;;;;;4.57;4.27;;;;;;;9.25;100.00;96722.38;5042848;28;20200;-58
2023/04/18 01:08:44;;;;;;;4.87;4.53;;;;;;;9.24;100.00;96711.97;5043208;28;20231;-59
2023/04/18 01:11:12;;;;;;;4.57;4.27;;;;;;;9.20;100.00;96711.41;5042239;28;20243;-59
2023/04/18 01:13:40;;;;;;;4.57;4.27;;;;;;;9.26;100.00;96710.03;5043556;28;20199;-58
2023/04/18 01:16:07;;;;;;;5.10;4.70;;;;;;;9.24;100.00;96706.69;5044392;28;20274;-57
2023/04/18 01:18:34;;;;;;;4.70;4.40;;;;;;;9.19;100.00;96708.88;5044215;28;20218;-58
2023/04/18 01:21:00;;;;;;;5.33;4.93;;;;;;;9.22;100.00;96705.97;5043833;28;20270;-59
2023/04/18 01:23:26;;;;;;;4.87;4.57;;;;;;;9.24;100.00;96701.44;5043300;28;20199;-58
2023/04/18 01:25:54;;;;;;;4.77;4.47;;;;;;;9.16;100.00;96704.72;5043841;28;20199;-58
2023/04/18 01:28:21;;;;;;;5.03;4.63;;;;;;;9.17;100.00;96697.66;5043851;28;20203;-58
2023/04/18 01:30:47;;;;;;;4.93;4.53;;;;;;;9.22;100.00;96698.06;5043128;28;20289;-59
2023/04/18 01:33:14;;;;;;;4.80;4.50;;;;;;;9.21;100.00;96699.88;5043238;28;20214;-58
2023/04/18 01:35:40;;;;;;;4.97;4.57;;;;;;;9.16;100.00;96694.16;5042180;28;20297;-57
2023/04/18 01:38:08;;;;;;;5.00;4.60;;;;;;;9.22;100.00;96690.16;5043199;28;20218;-57
2023/04/18 01:40:34;;;;;;;5.43;4.93;;;;;;;9.20;100.00;96692.09;5042688;28;20563;-58
2023/04/18 01:43:02;;;;;;;4.40;4.10;;;;;;;9.27;100.00;96693.25;5043481;28;20206;-57
2023/04/18 01:45:29;;;;;;;4.83;4.43;;;;;;;9.13;100.00;96681.25;5043114;28;20203;-58
2023/04/18 01:47:55;;;;;;;5.07;4.67;;;;;;;9.16;100.00;96677.50;5043181;28;20290;-58
2023/04/18 01:50:22;;;;;;;5.37;4.93;;;;;;;9.17;100.00;96677.38;5042256;28;20300;-57
2023/04/18 01:52:48;;;;;;;5.30;4.90;;;;;;;9.15;100.00;96686.38;5043774;28;20206;-58
2023/04/18 01:55:18;;;;;;;5.27;4.77;;;;;;;9.12;100.00;96668.19;5042586;28;20539;-59
2023/04/18 01:57:45;;;;;;;5.10;4.70;;;;;;;9.18;100.00;96675.56;5042981;28;20293;-59
2023/04/18 02:00:14;;;;;;;5.10;4.70;;;;;;;9.24;100.00;96673.25;5044020;28;20192;-58
2023/04/18 02:02:40;;;;;;;5.57;5.17;;;;;;;9.22;100.00;96669.88;5042068;28;20207;-58
2023/04/18 02:05:07;;;;;;;6.07;5.60;;;;;;;9.11;100.00;96667.34;5041360;28;20217;-57
2023/04/18 02:07:34;;;;;;;5.03;4.73;;;;;;;9.14;100.00;96668.91;5043195;28;20738;-58
2023/04/18 02:10:00;;;;;;;5.00;4.70;;;;;;;9.15;100.00;96671.38;5041881;28;20224;-58
2023/04/18 02:12:27;;;;;;;5.43;5.03;;;;;;;9.12;100.00;96665.53;5041982;28;20203;-57
2023/04/18 02:14:53;;;;;;;5.23;4.83;;;;;;;9.19;100.00;96675.44;5042999;28;20200;-58
2023/04/18 02:17:22;;;;;;;5.30;4.90;;;;;;;9.17;100.00;96663.34;5041912;28;20210;-58
2023/04/18 02:19:50;;;;;;;5.10;4.70;;;;;;;9.21;100.00;96672.69;5041224;28;20231;-58
2023/04/18 02:22:16;;;;;;;5.83;5.37;;;;;;;9.20;100.00;96674.47;5043220;28;20273;-58
2023/04/18 02:24:43;;;;;;;6.00;5.50;;;;;;;9.17;100.00;96652.81;5043109;28;20203;-57
2023/04/18 02:27:10;;;;;;;5.40;5.00;;;;;;;9.09;100.00;96663.19;5041778;28;20210;-59
2023/04/18 02:29:36;;;;;;;5.40;5.00;;;;;;;9.12;100.00;96663.75;5042659;28;20230;-58
2023/04/18 02:32:03;;;;;;;5.67;5.27;;;;;;;9.14;100.00;96661.78;5042131;28;20211;-58
2023/04/18 02:34:32;;;;;;;4.97;4.57;;;;;;;9.14;100.00;96663.63;5040884;28;20227;-59
2023/04/18 02:36:58;;;;;;;5.33;4.93;;;;;;;9.16;100.00;96661.69;5042107;28;20530;-59
2023/04/18 02:39:25;;;;;;;5.67;5.20;;;;;;;9.18;100.00;96657.09;5040966;28;20644;-58
2023/04/18 02:41:51;;;;;;;5.80;5.40;;;;;;;9.12;100.00;96652.34;5041605;28;20233;-59
2023/04/18 02:44:18;;;;;;;6.33;5.83;;;;;;;9.12;100.00;96649.72;5042056;28;20199;-58
2023/04/18 02:46:44;;;;;;;5.90;5.40;;;;;;;9.15;100.00;96654.72;5042152;28;20196;-58
2023/04/18 02:49:11;;;;;;;5.27;4.97;;;;;;;9.18;100.00;96647.38;5041932;28;20230;-59
2023/04/18 02:51:38;;;;;;;6.40;5.90;;;;;;;9.25;100.00;96647.66;5042058;28;20203;-58
2023/04/18 02:54:05;;;;;;;5.73;5.23;;;;;;;9.24;100.00;96646.00;5042450;28;20214;-59
2023/04/18 02:56:32;;;;;;;5.70;5.20;;;;;;;9.23;100.00;96650.44;5042111;28;20315;-58
2023/04/18 02:58:58;;;;;;;5.40;4.90;;;;;;;9.14;100.00;96651.25;5042602;28;20257;-57
2023/04/18 03:01:25;;;;;;;5.77;5.23;;;;;;;9.19;100.00;96638.50;5043010;28;20211;-59
2023/04/18 03:03:52;;;;;;;6.13;5.53;;;;;;;9.20;100.00;96645.44;5042444;28;20207;-59
2023/04/18 03:06:18;;;;;;;6.13;5.53;;;;;;;9.17;100.00;96644.88;5041629;28;21381;-57
2023/04/18 03:08:46;;;;;;;5.70;5.30;;;;;;;9.19;100.00;96640.28;5041264;28;20652;-59
2023/04/18 03:11:13;;;;;;;6.20;5.70;;;;;;;9.20;100.00;96641.97;5041512;28;20239;-59
2023/04/18 03:13:39;;;;;;;5.97;5.47;;;;;;;9.23;100.00;96639.06;5041986;28;20196;-61
2023/04/18 03:16:06;;;;;;;6.30;5.80;;;;;;;9.20;100.00;96640.16;5044452;28;20215;-58
2023/04/18 03:18:32;;;;;;;6.40;5.90;;;;;;;9.23;100.00;96639.06;5044508;28;20219;-60
2023/04/18 03:20:59;;;;;;;6.43;5.93;;;;;;;9.27;100.00;96635.19;5045340;28;20268;-58
2023/04/18 03:23:26;;;;;;;6.57;6.07;;;;;;;9.21;100.00;96635.72;5044744;28;20208;-57
2023/04/18 03:25:53;;;;;;;6.37;5.87;;;;;;;9.19;100.00;96637.66;5045203;28;20211;-58
2023/04/18 03:28:20;;;;;;;6.17;5.67;;;;;;;9.15;100.00;96637.09;5045173;28;20208;-59
2023/04/18 03:30:46;;;;;;;5.90;5.50;;;;;;;9.18;100.00;96641.25;5044621;28;20555;-58
2023/04/18 03:33:13;;;;;;;6.43;5.93;;;;;;;9.15;100.00;96636.25;5044643;28;20219;-57
2023/04/18 03:35:40;;;;;;;7.17;6.57;;;;;;;9.12;100.00;96641.81;5043667;28;20276;-58
2023/04/18 03:38:06;;;;;;;6.83;6.23;;;;;;;9.15;100.00;96642.38;5044942;28;20214;-59
2023/04/18 03:40:33;;;;;;;6.33;5.83;;;;;;;9.23;100.00;96639.06;5045592;28;20191;-59
2023/04/18 03:43:00;;;;;;;6.67;6.17;;;;;;;9.21;100.00;96638.38;5045922;28;20203;-59
2023/04/18 03:45:27;;;;;;;6.90;6.40;;;;;;;9.16;100.00;96633.50;5044876;28;20560;-58
2023/04/18 03:47:53;;;;;;;6.70;6.20;;;;;;;9.22;100.00;96637.38;5044727;28;20754;-58
2023/04/18 03:50:20;;;;;;;6.87;6.27;;;;;;;9.13;100.00;96630.28;5044230;28;20228;-58
2023/04/18 03:52:48;;;;;;;6.83;6.23;;;;;;;9.16;100.00;96635.28;5044222;28;20219;-60
2023/04/18 03:55:14;;;;;;;6.27;5.77;;;;;;;9.19;100.00;96637.66;5044580;28;20196;-59
2023/04/18 03:57:41;;;;;;;6.10;5.70;;;;;;;9.19;100.00;96627.09;5044236;28;20195;-59
2023/04/18 04:00:11;;;;;;;6.47;5.97;;;;;;;9.21;100.00;96641.00;5044502;28;20203;-58
2023/04/18 04:02:37;;;;;;;6.60;6.10;;;;;;;9.23;100.00;96631.16;5044739;28;20242;-58
2023/04/18 04:05:04;;;;;;;7.10;6.40;;;;;;;9.24;100.00;96632.81;5044041;28;20273;-59
2023/04/18 04:07:31;;;;;;;6.77;6.27;;;;;;;9.23;100.00;96631.97;5044302;28;20199;-58
2023/04/18 04:09:58;;;;;;;6.80;6.30;;;;;;;9.29;100.00;96627.97;5042749;28;20222;-60
2023/04/18 04:12:27;;;;;;;6.60;6.10;;;;;;;9.28;100.00;96631.59;5044235;28;20206;-59
2023/04/18 04:14:53;;;;;;;7.57;6.97;;;;;;;9.30;100.00;96637.56;5043802;28;20211;-59
2023/04/18 04:17:21;;;;;;;6.57;6.07;;;;;;;9.28;100.00;96631.59;5043489;28;20218;-59
2023/04/18 04:19:49;;;;;;;6.63;6.13;;;;;;;9.32;100.00;96631.16;5043391;28;20202;-59
2023/04/18 04:22:15;;;;;;;7.30;6.70;;;;;;;9.27;100.00;96636.03;5044217;28;20226;-57
2023/04/18 04:24:42;;;;;;;7.37;6.70;;;;;;;9.29;100.00;96628.78;5044099;28;20211;-58
2023/04/18 04:27:09;;;;;;;6.83;6.33;;;;;;;9.30;100.00;96634.91;5043664;28;20260;-59
2023/04/18 04:29:37;;;;;;;7.20;6.60;;;;;;;9.30;100.00;96632.28;5043187;28;20234;-59
2023/04/18 04:32:04;;;;;;;7.00;6.50;;;;;;;9.33;100.00;96637.28;5043538;28;20200;-58
2023/04/18 04:34:33;;;;;;;7.13;6.53;;;;;;;9.36;100.00;96635.19;5043828;28;20694;-58
2023/04/18 04:37:00;;;;;;;7.83;7.23;;;;;;;9.38;100.00;96643.84;5043633;28;20200;-59
2023/04/18 04:39:26;;;;;;;7.77;7.07;;;;;;;9.39;100.00;96639.38;5042557;28;20681;-60
2023/04/18 04:41:53;;;;;;;7.40;6.80;;;;;;;9.41;100.00;96637.44;5043990;28;20211;-58
2023/04/18 04:44:21;;;;;;;7.37;6.77;;;;;;;9.36;100.00;96651.03;5048852;28;20337;-59
2023/04/18 04:46:49;;;;;;;7.97;7.27;;;;;;;9.34;100.00;96644.22;5046892;28;20203;-58
2023/04/18 04:49:16;;;;;;;7.53;6.83;;;;;;;9.35;100.00;96645.91;5043200;28;20214;-57
2023/04/18 04:51:45;;;;;;;7.37;6.77;;;;;;;9.37;100.00;96646.59;5043828;28;20607;-57
2023/04/18 04:54:11;;;;;;;8.00;7.33;;;;;;;9.36;100.00;96650.19;5043526;28;20203;-59
2023/04/18 04:56:38;;;;;;;6.97;6.43;;;;;;;9.40;100.00;96647.16;5043147;28;20207;-58
2023/04/18 04:59:04;;;;;;;7.47;6.87;;;;;;;9.41;100.00;96643.56;5042973;28;20639;-58
2023/04/18 05:01:31;;;;;;;9.77;6.87;;;;;;;9.37;100.00;96658.00;5048578;28;20199;-58
2023/04/18 05:03:57;;;;;;;7.20;6.60;;;;;;;9.45;100.00;96654.69;5057756;28;20207;-58
2023/04/18 05:06:24;;;;;;;7.00;6.40;;;;;;;9.43;100.00;96651.31;5056695;28;20218;-58
2023/04/18 05:08:52;;;;;;;7.47;6.87;;;;;;;9.40;100.00;96654.25;5048668;28;20624;-58
2023/04/18 05:11:18;;;;;;;7.23;6.63;;;;;;;9.39;100.00;96660.47;5043345;28;20225;-58
2023/04/18 05:13:45;;;;;;;7.83;7.13;;;;;;;9.45;100.00;96654.69;5043619;28;20196;-59
2023/04/18 05:16:11;;;;;;;7.13;6.53;;;;;;;9.45;100.00;96655.53;5045230;28;20199;-59
2023/04/18 05:18:39;;;;;;;7.70;7.03;;;;;;;9.46;100.00;96656.31;5044916;28;20203;-57
2023/04/18 05:21:06;;;;;;;8.27;7.53;;;;;;;9.50;100.00;96652.44;5044391;28;20203;-58
2023/04/18 05:23:33;;;;;;;7.97;7.13;;;;;;;9.53;100.00;96656.66;5043720;28;20606;-57
2023/04/18 05:26:01;;;;;;;7.90;7.17;;;;;;;9.53;100.00;96662.72;5065720;28;20198;-57
2023/04/18 05:28:27;;;;;;;7.50;6.83;;;;;;;9.50;100.00;96652.44;5066845;28;20190;-58
2023/04/18 05:30:59;;;;;;;7.90;7.20;;;;;;;9.50;100.00;96655.09;5070196;28;20227;-60
2023/04/18 05:33:26;;;;;;;7.23;6.57;;;;;;;9.55;100.00;96658.16;5065238;28;20202;-61
2023/04/18 05:35:53;;;;;;;7.60;7.00;;;;;;;9.59;100.00;96664.00;5052468;28;20250;-57
2023/04/18 05:38:19;;;;;;;7.93;7.23;;;;;;;9.63;100.00;96660.97;5043875;28;20214;-59
2023/04/18 05:40:49;;;;;;;6.57;6.07;;;;;;;9.66;100.00;96662.50;5044288;28;20204;-57
2023/04/18 05:43:17;;;;;;;7.80;7.00;;;;;;;9.68;100.00;96660.53;5044531;28;20213;-57
2023/04/18 05:45:44;;;;;;;7.73;7.03;;;;;;;9.73;100.00;96664.44;5044518;28;20208;-57
2023/04/18 05:48:11;;;;;;;7.43;6.83;;;;;;;9.71;100.00;96669.03;5042219;28;20203;-58
2023/04/18 05:50:37;;;;;;;7.73;7.13;;;;;;;9.70;100.00;96667.38;5043557;28;20230;-58
2023/04/18 05:53:04;;;;;;;8.30;7.60;;;;;;;9.69;100.00;96668.34;5043460;28;20203;-58
2023/04/18 05:55:30;;;;;;;7.43;6.83;;;;;;;9.69;100.00;96670.97;5042616;28;20204;-58
2023/04/18 05:57:56;;;;;;;8.23;7.57;;;;;;;9.74;100.00;96666.09;5042580;28;20207;-57
2023/04/18 06:00:24;;;;;;;8.23;7.53;;;;;;;9.77;100.00;96665.00;5043314;28;20211;-58
2023/04/18 06:02:51;;;;;;;7.73;7.03;;;;;;;9.74;100.00;96666.09;5044246;28;20238;-58
2023/04/18 06:05:17;;;;;;;7.47;6.87;;;;;;;9.77;100.00;96668.50;5044518;28;20198;-57
2023/04/18 06:07:46;;;;;;;8.60;7.70;;;;;;;9.74;100.00;96673.22;5049928;28;20447;-58
2023/04/18 06:10:13;;;;;;;8.10;7.40;;;;;;;9.76;100.00;96680.03;5046434;28;20301;-59
2023/04/18 06:12:40;;;;;;;8.83;8.03;;;;;;;9.70;100.00;96671.81;5046046;28;20692;-59
2023/04/18 06:15:08;;;;;;;8.20;7.40;;;;;;;9.73;100.00;96676.81;5043379;28;20298;-60
2023/04/18 06:17:36;;;;;;;7.77;7.17;;;;;;;9.76;100.00;96680.03;5041922;28;20222;-60
2023/04/18 06:20:05;;;;;;;7.60;7.00;;;;;;;9.79;100.00;96682.38;5042078;28;20195;-61
2023/04/18 06:22:31;;;;;;;7.90;7.13;;;;;;;9.80;100.00;96678.78;5042756;28;20265;-61
2023/04/18 06:24:57;;;;;;;11.33;7.40;;;;;;;9.87;100.00;96686.97;5041737;28;20214;-60
2023/04/18 06:27:25;;;;;;;8.53;7.77;;;;;;;9.89;100.00;96683.22;5041969;28;20211;-60
2023/04/18 06:29:52;;;;;;;8.17;7.47;;;;;;;9.93;100.00;96692.53;5042451;28;20219;-57
2023/04/18 06:32:18;;;;;;;9.17;7.90;;;;;;;9.90;100.00;96686.69;5043629;28;20210;-58
2023/04/18 06:34:46;;;;;;;8.53;7.83;;;;;;;9.95;100.00;96682.66;5041963;28;20239;-58
2023/04/18 06:37:12;;;;;;;8.67;7.40;;;;;;;9.90;100.00;96682.25;5043161;28;20210;-57
2023/04/18 06:39:39;;;;;;;7.90;7.30;;;;;;;9.94;100.00;96688.09;5042643;28;20203;-58
2023/04/18 06:42:06;;;;;;;8.47;7.77;;;;;;;9.93;100.00;96684.63;5042964;28;20206;-57
2023/04/18 06:44:32;;;;;;;8.30;7.60;;;;;;;10.01;100.00;96683.94;5043274;28;20207;-58
2023/04/18 06:46:59;;;;;;;8.27;7.57;;;;;;;10.07;100.00;96687.81;5043668;28;20527;-56
2023/04/18 06:49:25;;;;;;;8.50;7.70;;;;;;;10.15;100.00;96685.34;5045246;28;20259;-57
2023/04/18 06:51:53;;;;;;;8.47;7.77;;;;;;;10.15;100.00;96686.19;5046574;28;20219;-57
2023/04/18 06:54:21;;;;;;;8.20;7.40;;;;;;;10.22;100.00;96691.75;5046355;28;20203;-59
2023/04/18 06:56:47;;;;;;;8.47;7.73;;;;;;;10.30;100.00;96684.81;5047253;28;20199;-57
2023/04/18 06:59:14;;;;;;;8.03;7.33;;;;;;;10.53;100.00;96685.31;5047491;28;20230;-58
2023/04/18 07:01:41;;;;;;;8.30;7.50;;;;;;;11.11;100.00;96680.72;5046421;28;20195;-57
2023/04/18 07:04:07;;;;;;;8.20;7.50;;;;;;;11.24;100.00;96691.78;5045782;28;20260;-58
2023/04/18 07:06:34;;;;;;;7.83;7.23;;;;;;;11.19;100.00;96690.56;5047809;28;20214;-58
2023/04/18 07:09:04;;;;;;;8.20;7.60;;;;;;;11.18;98.33;96688.91;5047231;28;20582;-57
2023/04/18 07:11:31;;;;;;;8.33;7.63;;;;;;;11.15;99.19;96691.84;5047687;28;20215;-57
2023/04/18 07:13:59;;;;;;;8.77;8.07;;;;;;;10.97;99.60;96700.53;5049079;28;20266;-58
2023/04/18 07:16:26;;;;;;;8.77;8.07;;;;;;;11.01;99.78;96700.25;5047297;28;20648;-58
2023/04/18 07:18:53;;;;;;;8.50;7.90;;;;;;;11.15;99.45;96694.50;5046269;28;20286;-58
2023/04/18 07:21:19;;;;;;;8.80;8.03;;;;;;;11.26;100.00;96692.50;5046703;28;20235;-57
2023/04/18 07:23:46;;;;;;;9.23;8.43;;;;;;;11.19;99.59;96687.94;5047537;28;20222;-57
2023/04/18 07:26:14;;;;;;;8.63;7.93;;;;;;;11.20;100.00;96684.28;5046938;28;20648;-58
2023/04/18 07:28:41;;;;;;;10.10;8.43;;;;;;;11.25;100.00;96692.63;5046744;28;20216;-58
2023/04/18 07:31:10;;;;;;;9.17;8.27;;;;;;;11.26;100.00;96689.84;5048412;28;20544;-57
2023/04/18 07:33:37;;;;;;;9.60;8.80;;;;;;;11.31;98.33;96695.53;5048012;28;20619;-59
2023/04/18 07:36:04;;;;;;;9.70;8.80;;;;;;;11.24;98.50;96696.25;5047255;28;21357;-58
2023/04/18 07:38:31;;;;;;;9.10;8.30;;;;;;;11.48;98.44;96689.44;5047031;28;20203;-58
2023/04/18 07:40:59;;;;;;;9.40;8.53;;;;;;;11.69;99.51;96696.31;5047963;28;20249;-57
2023/04/18 07:43:27;;;;;;;9.70;8.80;;;;;;;11.71;96.76;96700.50;5046755;28;20210;-59
2023/04/18 07:45:54;;;;;;;9.03;8.33;;;;;;;11.70;96.53;96698.81;5045320;28;20208;-59
2023/04/18 07:48:21;;;;;;;9.77;8.87;;;;;;;11.68;96.53;96698.13;5045291;28;20211;-58
2023/04/18 07:50:48;;;;;;;9.47;8.67;;;;;;;11.58;97.03;96707.94;5045487;28;20219;-57
2023/04/18 07:53:14;;;;;;;10.67;9.60;;;;;;;11.53;96.90;96699.59;5044390;28;20640;-57
2023/04/18 07:55:42;;;;;;;10.13;9.23;;;;;;;11.57;97.91;96708.09;5045300;28;20254;-57
2023/04/18 07:58:08;;;;;;;10.40;9.40;;;;;;;11.74;98.52;96710.81;5044518;28;20212;-57
2023/04/18 08:00:37;;;;;;;9.63;8.73;;;;;;;11.82;94.60;96713.56;5045361;28;20541;-58
2023/04/18 08:03:04;;;;;;;15.10;10.60;;;;;;;11.92;95.10;96709.03;5044520;28;20334;-58
2023/04/18 08:05:30;;;;;;;12.30;10.80;;;;;;;11.87;94.48;96713.94;5046126;28;20204;-58
2023/04/18 08:07:57;;;;;;;10.50;9.50;;;;;;;11.81;93.58;96717.19;5046007;28;20211;-57
2023/04/18 08:10:23;;;;;;;9.80;9.00;;;;;;;11.84;94.75;96711.59;5044352;28;20222;-58
2023/04/18 08:12:50;;;;;;;10.03;9.07;;;;;;;11.74;94.42;96716.09;5045955;28;20231;-57
2023/04/18 08:15:16;;;;;;;9.93;8.97;;;;;;;11.61;95.28;96710.31;5044479;28;20210;-58
2023/04/18 08:17:47;;;;;;;10.73;9.70;;;;;;;11.51;96.24;96716.63;5044474;28;20207;-57
2023/04/18 08:20:14;;;;;;;10.83;9.73;;;;;;;11.54;96.27;96717.16;5044672;28;20200;-57
2023/04/18 08:22:40;;;;;;;10.83;9.73;;;;;;;11.36;98.04;96716.28;5043956;28;20204;-58
2023/04/18 08:25:07;;;;;;;10.63;9.63;;;;;;;11.53;97.65;96704.06;5044296;28;20226;-57
2023/04/18 08:27:36;;;;;;;10.90;9.90;;;;;;;11.65;96.71;96710.84;5044815;28;20214;-59
2023/04/18 08:30:03;;;;;;;12.80;10.60;;;;;;;11.67;95.99;96714.16;5044589;28;20195;-57
2023/04/18 08:32:31;;;;;;;10.33;9.37;;;;;;;11.64;96.06;96717.94;5043938;28;20245;-58
2023/04/18 08:34:59;;;;;;;11.20;10.20;;;;;;;11.63;96.87;96710.97;5044236;28;20239;-57
2023/04/18 08:37:26;;;;;;;10.07;9.17;;;;;;;11.64;96.13;96704.72;5046270;28;20229;-57
2023/04/18 08:39:53;;;;;;;9.67;8.77;;;;;;;11.58;95.77;96712.41;5045390;28;20211;-59
2023/04/18 08:42:20;;;;;;;15.03;9.87;;;;;;;11.51;96.02;96714.81;5045010;28;20211;-57
2023/04/18 08:44:48;;;;;;;12.27;9.80;;;;;;;11.52;96.04;96711.16;5044991;28;20199;-59
2023/04/18 08:47:18;;;;;;;35.60;15.60;;;;;;;11.52;97.89;96716.47;5046546;28;20218;-59
2023/04/18 08:49:45;;;;;;;22.17;13.27;;;;;;;11.64;97.84;96719.75;5045142;28;20196;-58
2023/04/18 08:52:15;;;;;;;61.07;25.83;;;;;;;11.71;99.66;96721.72;5046256;28;20239;-58
2023/04/18 08:54:42;;;;;;;20.17;14.33;;;;;;;11.74;96.65;96720.56;5044551;28;20262;-57
2023/04/18 08:57:11;;;;;;;11.07;9.97;;;;;;;11.80;96.06;96726.09;5049549;28;20203;-58
2023/04/18 08:59:38;;;;;;;10.30;9.40;;;;;;;11.92;94.61;96724.09;5050947;28;20199;-58
2023/04/18 09:02:07;;;;;;;10.57;9.63;;;;;;;12.03;94.37;96720.38;5055050;28;20204;-58
2023/04/18 09:04:37;;;;;;;10.80;9.50;;;;;;;12.03;95.21;96723.03;5048553;28;20196;-57
2023/04/18 09:07:04;;;;;;;11.03;10.03;;;;;;;12.02;95.25;96719.56;5046193;28;20206;-58
2023/04/18 09:09:46;;;;;;;10.33;9.33;;;;;;;12.24;93.57;96723.59;5045190;28;20924;-58
2023/04/18 09:12:14;;;;;;;12.50;8.93;;;;;;;12.45;95.14;96724.94;5042842;28;20212;-58
2023/04/18 09:14:44;;;;;;;9.13;8.43;;;;;;;12.50;89.11;96729.81;5044328;28;20557;-58
2023/04/18 09:17:13;;;;;;;9.53;8.70;;;;;;;12.48;91.17;96734.41;5048896;28;20253;-58
2023/04/18 09:19:47;;;;;;;10.07;9.07;;;;;;;12.52;89.98;96726.97;5050764;28;20702;-58
2023/04/18 09:22:14;;;;;;;9.37;8.57;;;;;;;12.57;89.23;96720.25;5058735;28;20199;-58
2023/04/18 09:24:51;;;;;;;9.50;8.67;;;;;;;12.81;90.10;96716.94;5046062;28;20246;-58
2023/04/18 09:27:19;;;;;;;9.13;8.30;;;;;;;12.96;90.03;96718.06;5045495;28;20268;-57
2023/04/18 09:29:48;;;;;;;9.43;8.53;;;;;;;13.28;86.60;96720.09;5044127;28;20204;-58
2023/04/18 09:32:23;;;;;;;9.97;8.97;;;;;;;13.32;85.06;96722.25;5043721;28;20226;-57
2023/04/18 09:34:53;;;;;;;10.00;9.10;;;;;;;13.62;83.38;96714.78;5043580;28;20281;-58
2023/04/18 09:37:20;;;;;;;9.15;8.35;;;;;;;13.72;85.40;96716.31;5043572;28;20211;-58
2023/04/18 09:39:46;;;;;;;9.63;8.73;;;;;;;13.87;83.69;96713.88;5045255;28;21487;-58
2023/04/18 09:42:14;;;;;;;9.95;9.05;;;;;;;13.72;83.53;96724.28;5044411;28;20216;-58
2023/04/18 09:45:03;;;;;;;9.90;9.00;;;;;;;13.71;84.03;96725.25;5045861;28;20207;-58
2023/04/18 09:47:31;;;;;;;9.53;8.63;;;;;;;13.84;84.07;96717.69;5044909;28;20203;-58
2023/04/18 09:49:57;;;;;;;9.77;8.87;;;;;;;13.73;82.88;96725.13;5042196;28;20228;-58
2023/04/18 09:52:25;;;;;;;9.90;9.00;;;;;;;13.38;83.33;96724.31;5043390;28;20231;-59
2023/04/18 09:54:57;;;;;;;9.60;8.80;;;;;;;13.52;84.02;96730.84;5042840;28;20294;-59
2023/04/18 09:57:26;;;;;;;10.00;8.77;;;;;;;13.73;85.06;96733.94;5042927;28;20207;-58
2023/04/18 09:59:59;;;;;;;10.13;9.17;;;;;;;13.78;82.97;96734.25;5044362;28;20212;-60
2023/04/18 10:02:28;;;;;;;10.10;9.20;;;;;;;13.73;82.91;96725.94;5043680;28;20290;-58
2023/04/18 10:04:57;;;;;;;10.73;8.87;;;;;;;13.65;84.14;96728.56;5042664;28;20203;-57
2023/04/18 10:07:24;;;;;;;11.75;10.30;;;;;;;13.59;83.75;96729.22;5043226;28;20207;-58
2023/04/18 10:09:51;;;;;;;10.23;8.75;;;;;;;13.66;82.47;96730.25;5042526;28;20215;-58
2023/04/18 10:12:18;;;;;;;10.40;9.50;;;;;;;13.54;83.92;96731.50;5042851;28;20234;-58
2023/04/18 10:14:46;;;;;;;11.00;9.80;;;;;;;13.40;84.37;96724.97;5041859;28;20286;-57
2023/04/18 10:17:14;;;;;;;10.00;9.10;;;;;;;13.61;84.59;96727.22;5042452;28;20204;-58
2023/04/18 10:19:43;;;;;;;10.40;9.40;;;;;;;13.51;83.40;96726.50;5043326;28;20199;-59
2023/04/18 10:22:09;;;;;;;9.93;9.03;;;;;;;13.43;84.26;96721.16;5043110;28;20222;-58
2023/04/18 10:24:51;;;;;;;9.73;8.83;;;;;;;13.52;85.20;96725.53;5041232;28;20625;-58
2023/04/18 10:27:18;;;;;;;11.30;8.33;;;;;;;13.53;84.25;96729.03;5041750;28;20293;-57
2023/04/18 10:29:51;;;;;;;9.27;8.37;;;;;;;13.37;82.20;96729.75;5044071;28;20212;-57
2023/04/18 10:32:18;;;;;;;9.57;8.67;;;;;;;13.40;83.68;96721.47;5043377;28;20237;-58
2023/04/18 10:34:46;;;;;;;9.70;8.87;;;;;;;13.50;83.76;96729.34;5041336;28;20564;-57
2023/04/18 10:37:13;;;;;;;9.33;8.43;;;;;;;13.69;82.44;96729.09;5042016;28;20262;-59
2023/04/18 10:39:54;;;;;;;9.98;9.07;;;;;;;13.80;82.40;96731.47;5043107;28;20659;-56
2023/04/18 10:42:59;;;;;;;10.50;9.60;;;;;;;14.05;81.84;96721.72;5042054;28;20242;-58
2023/04/18 10:45:29;;;;;;;10.65;9.65;;;;;;;13.98;81.49;96726.03;5041285;28;20663;-58
2023/04/18 10:48:24;;;;;;;10.77;9.45;;;;;;;14.45;81.67;96716.53;5042538;28;20195;-58
2023/04/18 10:51:13;;;;;;;11.13;10.02;;;;;;;14.60;80.57;96716.66;5043869;28;20302;-58
2023/04/18 10:53:43;;;;;;;10.13;9.20;;;;;;;14.64;79.91;96713.50;5044539;28;20825;-56
2023/04/18 10:56:11;;;;;;;10.23;9.23;;;;;;;14.77;80.75;96710.38;5046922;28;20199;-58
2023/04/18 10:58:41;;;;;;;10.73;9.73;;;;;;;15.01;78.36;96706.84;5048310;28;20691;-59
2023/04/18 11:01:11;;;;;;;9.27;8.43;;;;;;;15.42;75.58;96703.06;5054091;28;20567;-58
2023/04/18 11:03:37;;;;;;;9.38;8.57;;;;;;;15.66;75.25;96702.22;5060230;28;20199;-58
2023/04/18 11:06:04;;;;;;;9.68;8.77;;;;;;;15.53;74.96;96701.91;5064430;28;20214;-59
2023/04/18 11:08:31;;;;;;;11.30;10.15;;;;;;;15.98;74.08;96695.88;5067059;28;20171;-57
2023/04/18 11:10:58;;;;;;;10.52;9.52;;;;;;;16.21;73.74;96694.06;5051066;28;20206;-59
2023/04/18 11:13:24;;;;;;;10.52;9.50;;;;;;;16.46;71.11;96695.56;5046542;28;20234;-57
2023/04/18 11:15:51;;;;;;;9.40;8.60;;;;;;;16.01;71.54;96700.88;5045900;28;20199;-57
2023/04/18 11:18:19;;;;;;;9.75;8.85;;;;;;;15.54;73.26;96699.06;5042702;28;20215;-57
2023/04/18 11:20:49;;;;;;;10.35;9.20;;;;;;;15.26;74.39;96695.13;5043328;28;20211;-58
2023/04/18 11:23:18;;;;;;;10.65;9.65;;;;;;;15.13;74.74;96700.16;5042676;28;20217;-57
2023/04/18 11:25:45;;;;;;;9.90;9.00;;;;;;;14.98;76.99;96701.84;5043473;28;20211;-58
2023/04/18 11:28:12;;;;;;;11.90;10.23;;;;;;;14.70;77.63;96699.53;5044508;28;20298;-58
2023/04/18 11:30:40;;;;;;;10.82;9.75;;;;;;;14.69;78.04;96697.91;5042479;28;20238;-56
2023/04/18 11:33:07;;;;;;;10.77;9.77;;;;;;;14.63;79.30;96695.88;5043159;28;20687;-58